createdAt,value
2022-09-27T00:00:59.564Z,2.60
2022-09-27T00:03:46.451Z,2.70
2022-09-27T00:06:33.274Z,2.90
2022-09-27T00:09:19.491Z,2.73
2022-09-27T00:12:06.446Z,3.00
2022-09-27T00:14:52.244Z,2.90
2022-09-27T00:17:39.288Z,2.80
2022-09-27T00:20:25.542Z,2.90
2022-09-27T00:23:11.291Z,3.00
2022-09-27T00:25:57.411Z,3.20
2022-09-27T00:28:44.500Z,3.13
2022-09-27T00:31:31.464Z,3.10
2022-09-27T00:34:22.704Z,3.10
2022-09-27T00:37:09.728Z,3.10
2022-09-27T00:39:57.388Z,2.87
2022-09-27T00:42:43.433Z,2.80
2022-09-27T00:45:29.420Z,3.10
2022-09-27T00:48:16.599Z,2.80
2022-09-27T00:51:05.356Z,3.13
2022-09-27T00:53:52.137Z,3.10
2022-09-27T00:56:38.587Z,2.47
2022-09-27T00:59:27.451Z,2.97
2022-09-27T01:02:15.265Z,2.83
2022-09-27T01:05:01.707Z,3.00
2022-09-27T01:07:47.485Z,2.70
2022-09-27T01:10:38.873Z,2.90
2022-09-27T01:13:28.285Z,3.13
2022-09-27T01:16:27.026Z,2.80
2022-09-27T01:19:21.711Z,2.67
2022-09-27T01:22:11.891Z,2.60
2022-09-27T01:25:04.784Z,2.50
2022-09-27T01:28:14.977Z,2.47
2022-09-27T01:31:14.158Z,2.10
2022-09-27T01:34:05.593Z,2.50
2022-09-27T01:37:05.251Z,2.40
2022-09-27T01:39:56.898Z,2.50
2022-09-27T01:42:56.222Z,2.60
2022-09-27T01:45:55.049Z,2.13
2022-09-27T01:49:03.286Z,2.13
2022-09-27T01:51:52.794Z,2.23
2022-09-27T01:54:44.976Z,2.13
2022-09-27T01:57:59.169Z,2.53
2022-09-27T02:00:47.817Z,2.43
2022-09-27T02:03:38.703Z,2.10
2022-09-27T02:06:45.924Z,2.30
2022-09-27T02:09:50.535Z,2.30
2022-09-27T02:12:38.895Z,3.23
2022-09-27T02:15:31.734Z,2.27
2022-09-27T02:18:48.654Z,2.10
2022-09-27T02:21:41.476Z,2.70
2022-09-27T02:24:38.113Z,2.47
2022-09-27T02:27:36.859Z,2.30
2022-09-27T02:30:28.101Z,2.30
2022-09-27T02:33:23.731Z,2.53
2022-09-27T02:36:09.720Z,2.83
2022-09-27T02:38:55.393Z,2.23
2022-09-27T02:41:42.544Z,2.40
2022-09-27T02:44:29.088Z,2.33
2022-09-27T02:47:30.085Z,2.30
2022-09-27T02:50:35.023Z,2.57
2022-09-27T02:53:38.761Z,2.60
2022-09-27T02:56:52.641Z,2.60
2022-09-27T03:00:05.201Z,2.63
2022-09-27T03:03:13.691Z,2.73
2022-09-27T03:06:20.549Z,2.50
2022-09-27T03:09:06.180Z,2.83
2022-09-27T03:11:53.755Z,2.87
2022-09-27T03:14:39.878Z,3.07
2022-09-27T03:17:44.835Z,3.00
2022-09-27T03:20:49.819Z,2.93
2022-09-27T03:23:38.060Z,3.67
2022-09-27T03:26:24.812Z,3.60
2022-09-27T03:29:11.627Z,3.37
2022-09-27T03:32:00.809Z,4.73
2022-09-27T03:35:04.866Z,3.37
2022-09-27T03:37:51.259Z,3.07
2022-09-27T03:40:37.345Z,3.10
2022-09-27T03:43:25.196Z,2.53
2022-09-27T03:46:16.902Z,2.70
2022-09-27T03:49:02.677Z,1.97
2022-09-27T03:51:49.108Z,2.40
2022-09-27T03:54:34.997Z,2.17
2022-09-27T03:57:20.804Z,2.13
2022-09-27T04:00:07.671Z,1.80
2022-09-27T04:03:00.625Z,1.87
2022-09-27T04:05:46.217Z,2.07
2022-09-27T04:08:39.427Z,1.87
2022-09-27T04:11:25.684Z,1.80
2022-09-27T04:14:12.909Z,2.00
2022-09-27T04:17:14.428Z,1.93
2022-09-27T04:20:24.167Z,2.03
2022-09-27T04:23:10.997Z,2.00
2022-09-27T04:26:00.261Z,1.60
2022-09-27T04:29:05.015Z,1.80
2022-09-27T04:31:56.395Z,1.60
2022-09-27T04:35:14.338Z,1.80
2022-09-27T04:38:03.348Z,1.80
2022-09-27T04:40:50.806Z,2.20
2022-09-27T04:43:37.507Z,1.90
2022-09-27T04:46:26.067Z,1.90
2022-09-27T04:49:17.792Z,1.90
2022-09-27T04:52:03.958Z,1.80
2022-09-27T04:54:50.390Z,2.03
2022-09-27T04:57:36.509Z,1.60
2022-09-27T05:00:23.012Z,2.20
2022-09-27T05:03:16.794Z,1.90
2022-09-27T05:06:14.413Z,2.13
2022-09-27T05:09:01.874Z,1.70
2022-09-27T05:11:49.514Z,1.93
2022-09-27T05:14:35.664Z,2.20
2022-09-27T05:17:55.335Z,1.90
2022-09-27T05:21:00.043Z,2.10
2022-09-27T05:23:54.138Z,2.60
2022-09-27T05:26:40.184Z,1.77
2022-09-27T05:29:27.893Z,1.60
2022-09-27T05:32:30.377Z,1.67
2022-09-27T05:35:45.468Z,1.70
2022-09-27T05:38:32.523Z,1.70
2022-09-27T05:41:19.257Z,1.67
2022-09-27T05:44:05.906Z,2.07
2022-09-27T05:46:52.367Z,1.97
2022-09-27T05:49:40.649Z,1.80
2022-09-27T05:52:28.566Z,2.07
2022-09-27T05:55:17.168Z,1.50
2022-09-27T05:58:04.470Z,1.90
2022-09-27T06:00:58.430Z,2.00
2022-09-27T06:04:13.447Z,1.90
2022-09-27T06:07:27.959Z,1.97
2022-09-27T06:10:14.036Z,2.00
2022-09-27T06:13:02.366Z,2.07
2022-09-27T06:15:53.748Z,1.90
2022-09-27T06:18:40.559Z,1.87
2022-09-27T06:21:28.694Z,2.23
2022-09-27T06:24:16.338Z,1.90
2022-09-27T06:27:03.677Z,1.93
2022-09-27T06:30:01.745Z,2.03
2022-09-27T06:33:01.554Z,2.20
2022-09-27T06:35:50.574Z,2.37
2022-09-27T06:38:38.447Z,2.43
2022-09-27T06:41:48.654Z,2.00
2022-09-27T06:44:48.166Z,2.37
2022-09-27T06:47:55.980Z,2.30
2022-09-27T06:50:57.859Z,2.10
2022-09-27T06:53:43.764Z,2.40
2022-09-27T06:56:29.706Z,2.40
2022-09-27T06:59:34.028Z,2.00
2022-09-27T07:02:41.081Z,2.10
2022-09-27T07:06:00.600Z,2.13
2022-09-27T07:08:58.689Z,2.13
2022-09-27T07:11:44.738Z,2.00
2022-09-27T07:14:31.492Z,3.20
2022-09-27T07:17:17.040Z,2.60
2022-09-27T07:20:05.811Z,2.10
2022-09-27T07:22:52.040Z,2.33
2022-09-27T07:25:37.857Z,2.00
2022-09-27T07:28:23.625Z,2.03
2022-09-27T07:31:09.657Z,1.90
2022-09-27T07:33:55.309Z,2.23
2022-09-27T07:36:40.930Z,2.40
2022-09-27T07:39:27.991Z,2.10
2022-09-27T07:42:13.881Z,2.33
2022-09-27T07:45:06.177Z,2.37
2022-09-27T07:48:14.905Z,2.20
2022-09-27T07:51:17.075Z,1.90
2022-09-27T07:54:19.694Z,2.17
2022-09-27T07:57:30.882Z,2.00
2022-09-27T08:00:19.901Z,3.27
2022-09-27T08:03:10.880Z,2.33
2022-09-27T08:05:56.786Z,1.80
2022-09-27T08:08:47.311Z,1.50
2022-09-27T08:11:33.158Z,1.70
2022-09-27T08:14:20.757Z,2.17
2022-09-27T08:17:12.030Z,2.40
2022-09-27T08:20:20.224Z,1.80
2022-09-27T08:23:25.358Z,2.13
2022-09-27T08:26:30.457Z,1.90
2022-09-27T08:29:25.429Z,1.80
2022-09-27T08:32:18.242Z,1.77
2022-09-27T08:35:07.628Z,2.90
2022-09-27T08:37:54.200Z,1.90
2022-09-27T08:40:59.461Z,1.90
2022-09-27T08:43:48.273Z,1.90
2022-09-27T08:46:37.150Z,1.80
2022-09-27T08:49:26.931Z,2.00
2022-09-27T08:52:28.072Z,2.53
2022-09-27T08:55:30.865Z,1.80
2022-09-27T08:58:22.982Z,1.77
2022-09-27T09:01:14.629Z,1.60
2022-09-27T09:04:06.155Z,1.70
2022-09-27T09:07:01.217Z,1.90
2022-09-27T09:09:53.418Z,1.53
2022-09-27T09:12:53.745Z,2.00
2022-09-27T09:15:55.226Z,2.07
2022-09-27T09:18:51.008Z,1.83
2022-09-27T09:22:08.192Z,1.83
2022-09-27T09:25:00.393Z,1.90
2022-09-27T09:28:07.719Z,1.90
2022-09-27T09:30:53.375Z,1.90
2022-09-27T09:33:42.312Z,2.13
2022-09-27T09:36:36.628Z,1.80
2022-09-27T09:39:25.100Z,1.70
2022-09-27T09:42:37.018Z,2.03
2022-09-27T09:45:29.003Z,1.80
2022-09-27T09:48:33.708Z,1.77
2022-09-27T09:51:22.523Z,1.50
2022-09-27T09:54:14.514Z,1.83
2022-09-27T09:57:06.548Z,1.67
2022-09-27T10:00:03.008Z,2.40
2022-09-27T10:02:52.397Z,1.80
2022-09-27T10:05:42.978Z,2.60
2022-09-27T10:08:29.502Z,1.93
2022-09-27T10:11:42.458Z,1.80
2022-09-27T10:14:43.058Z,1.83
2022-09-27T10:17:34.394Z,1.70
2022-09-27T10:20:29.799Z,4.00
2022-09-27T10:23:17.049Z,1.60
2022-09-27T10:26:22.820Z,1.60
2022-09-27T10:29:32.564Z,1.90
2022-09-27T10:32:27.115Z,1.53
2022-09-27T10:35:35.269Z,1.50
2022-09-27T10:38:30.949Z,1.70
2022-09-27T10:41:28.287Z,1.50
2022-09-27T10:44:25.851Z,1.50
2022-09-27T10:47:22.787Z,1.77
2022-09-27T10:50:38.853Z,1.67
2022-09-27T10:53:45.491Z,2.17
2022-09-27T10:56:36.968Z,1.90
2022-09-27T10:59:24.231Z,1.40
2022-09-27T11:02:24.202Z,1.70
2022-09-27T11:05:29.630Z,1.77
2022-09-27T11:08:18.600Z,1.80
2022-09-27T11:11:21.658Z,2.67
2022-09-27T11:14:18.052Z,2.00
2022-09-27T11:17:09.349Z,1.60
2022-09-27T11:20:02.179Z,1.83
2022-09-27T11:23:09.565Z,1.70
2022-09-27T11:26:35.997Z,1.97
2022-09-27T11:29:22.229Z,2.07
2022-09-27T11:32:46.048Z,2.60
2022-09-27T11:35:38.341Z,1.90
2022-09-27T11:38:53.276Z,1.80
2022-09-27T11:41:44.275Z,2.30
2022-09-27T11:44:41.929Z,2.20
2022-09-27T11:47:45.786Z,2.10
2022-09-27T11:50:50.404Z,2.33
2022-09-27T11:53:46.437Z,1.80
2022-09-27T11:56:52.678Z,2.00
2022-09-27T11:59:59.444Z,2.53
2022-09-27T12:03:04.484Z,1.90
2022-09-27T12:06:03.556Z,2.13
2022-09-27T12:09:13.590Z,2.37
2022-09-27T12:12:01.889Z,2.03
2022-09-27T12:15:20.084Z,1.70
2022-09-27T12:18:06.883Z,2.17
2022-09-27T12:20:53.605Z,1.80
2022-09-27T12:23:44.724Z,2.17
2022-09-27T12:26:51.018Z,2.10
2022-09-27T12:29:41.642Z,2.00
2022-09-27T12:32:34.416Z,2.40
2022-09-27T12:35:23.976Z,2.00
2022-09-27T12:38:38.749Z,2.07
2022-09-27T12:41:25.618Z,2.00
2022-09-27T12:44:27.513Z,2.00
2022-09-27T12:47:24.130Z,2.37
2022-09-27T12:50:20.265Z,2.23
2022-09-27T12:53:18.807Z,1.83
2022-09-27T12:56:23.414Z,2.10
2022-09-27T12:59:30.303Z,2.37
2022-09-27T13:02:35.162Z,2.50
2022-09-27T13:05:32.880Z,2.10
2022-09-27T13:08:35.264Z,2.07
2022-09-27T13:11:31.774Z,1.97
2022-09-27T13:14:19.725Z,2.20
2022-09-27T13:17:06.296Z,2.17
2022-09-27T13:19:53.435Z,2.10
2022-09-27T13:22:41.004Z,2.70
2022-09-27T13:25:55.565Z,2.43
2022-09-27T13:28:46.504Z,3.10
2022-09-27T13:31:52.344Z,2.50
2022-09-27T13:34:41.156Z,2.40
2022-09-27T13:38:03.227Z,1.90
2022-09-27T13:40:53.238Z,2.30
2022-09-27T13:43:58.754Z,2.40
2022-09-27T13:47:02.165Z,2.23
2022-09-27T13:49:51.757Z,2.17
2022-09-27T13:52:58.263Z,2.27
2022-09-27T13:55:46.389Z,2.13
2022-09-27T13:59:00.201Z,2.57
2022-09-27T14:02:21.813Z,2.40
2022-09-27T14:05:12.802Z,2.43
2022-09-27T14:07:59.820Z,1.77
2022-09-27T14:10:45.952Z,1.90
2022-09-27T14:13:33.934Z,1.73
2022-09-27T14:16:29.054Z,2.00
2022-09-27T14:19:20.286Z,2.27
2022-09-27T14:22:11.820Z,2.20
2022-09-27T14:25:17.656Z,1.87
2022-09-27T14:28:19.227Z,1.93
2022-09-27T14:31:19.935Z,2.90
2022-09-27T14:34:25.080Z,1.77
2022-09-27T14:37:26.515Z,1.90
2022-09-27T14:40:21.029Z,2.33
2022-09-27T14:43:07.124Z,1.80
2022-09-27T14:46:13.053Z,1.97
2022-09-27T14:48:59.589Z,1.93
2022-09-27T14:51:51.064Z,1.90
2022-09-27T14:54:36.652Z,2.20
2022-09-27T14:57:22.372Z,1.97
2022-09-27T15:00:20.883Z,2.00
2022-09-27T15:03:10.250Z,1.90
2022-09-27T15:05:59.391Z,2.13
2022-09-27T15:08:49.156Z,2.10
2022-09-27T15:11:35.200Z,2.00
2022-09-27T15:14:24.247Z,2.57
2022-09-27T15:17:18.222Z,3.07
2022-09-27T15:20:22.053Z,2.53
2022-09-27T15:23:07.532Z,2.70
2022-09-27T15:26:09.597Z,2.40
2022-09-27T15:28:55.330Z,2.10
2022-09-27T15:31:41.189Z,2.30
2022-09-27T15:34:29.930Z,2.20
2022-09-27T15:37:29.838Z,1.70
2022-09-27T15:40:19.558Z,2.10
2022-09-27T15:43:05.644Z,2.10
2022-09-27T15:45:52.439Z,2.57
2022-09-27T15:48:38.242Z,1.87
2022-09-27T15:51:40.940Z,2.10
2022-09-27T15:54:30.275Z,1.90
2022-09-27T15:57:15.951Z,1.90
2022-09-27T16:00:03.995Z,1.90
2022-09-27T16:02:57.736Z,2.40
2022-09-27T16:05:43.866Z,2.43
2022-09-27T16:08:29.849Z,2.43
2022-09-27T16:11:17.395Z,2.27
2022-09-27T16:14:03.679Z,2.10
2022-09-27T16:16:51.367Z,2.30
2022-09-27T16:19:37.037Z,2.63
2022-09-27T16:22:29.972Z,2.47
2022-09-27T16:25:15.893Z,2.70
2022-09-27T16:28:02.308Z,2.57
2022-09-27T16:30:48.011Z,2.80
2022-09-27T16:33:34.458Z,2.50
2022-09-27T16:36:21.152Z,2.93
2022-09-27T16:39:07.974Z,2.90
2022-09-27T16:41:54.551Z,3.47
2022-09-27T16:44:40.428Z,3.50
2022-09-27T16:47:26.309Z,3.73
2022-09-27T16:50:34.974Z,3.80
2022-09-27T16:53:20.857Z,2.83
2022-09-27T16:56:06.751Z,2.60
2022-09-27T16:58:53.361Z,2.63
2022-09-27T17:01:39.672Z,2.57
2022-09-27T17:04:26.653Z,2.70
2022-09-27T17:07:12.607Z,2.67
2022-09-27T17:09:58.148Z,3.07
2022-09-27T17:12:44.039Z,2.90
2022-09-27T17:15:29.728Z,2.70
2022-09-27T17:18:16.112Z,2.83
2022-09-27T17:21:03.773Z,3.30
2022-09-27T17:23:49.559Z,3.23
2022-09-27T17:26:35.566Z,3.33
2022-09-27T17:29:22.638Z,3.37
2022-09-27T17:32:08.554Z,3.27
2022-09-27T17:34:54.717Z,3.50
2022-09-27T17:37:40.674Z,3.30
2022-09-27T17:40:26.472Z,3.87
2022-09-27T17:43:12.159Z,4.40
2022-09-27T17:46:03.031Z,3.67
2022-09-27T17:49:08.064Z,4.10
2022-09-27T17:51:54.258Z,4.13
2022-09-27T17:54:39.924Z,3.87
2022-09-27T17:57:25.769Z,4.50
2022-09-27T18:00:11.704Z,3.83
2022-09-27T18:03:00.854Z,3.80
2022-09-27T18:05:46.819Z,4.03
2022-09-27T18:08:32.807Z,3.63
2022-09-27T18:11:25.183Z,3.80
2022-09-27T18:14:11.018Z,3.80
2022-09-27T18:16:57.481Z,3.37
2022-09-27T18:19:43.171Z,3.53
2022-09-27T18:22:30.982Z,4.10
2022-09-27T18:25:16.781Z,4.33
2022-09-27T18:28:03.647Z,3.50
2022-09-27T18:30:49.533Z,3.57
2022-09-27T18:33:37.231Z,3.40
2022-09-27T18:36:27.103Z,3.70
2022-09-27T18:39:15.760Z,3.40
2022-09-27T18:42:01.492Z,3.97
2022-09-27T18:44:46.943Z,3.73
2022-09-27T18:47:33.944Z,3.60
2022-09-27T18:50:20.727Z,3.83
2022-09-27T18:53:08.196Z,3.37
2022-09-27T18:55:54.553Z,3.43
2022-09-27T18:58:42.176Z,3.20
2022-09-27T19:01:28.087Z,3.60
2022-09-27T19:04:19.262Z,3.50
2022-09-27T19:07:08.090Z,3.50
2022-09-27T19:09:53.752Z,2.77
2022-09-27T19:12:41.180Z,3.20
2022-09-27T19:15:26.756Z,3.90
2022-09-27T19:18:12.735Z,3.30
2022-09-27T19:21:17.308Z,3.80
2022-09-27T19:24:05.313Z,3.00
2022-09-27T19:26:53.515Z,2.50
2022-09-27T19:29:40.642Z,3.43
2022-09-27T19:32:26.619Z,3.50
2022-09-27T19:35:12.365Z,3.70
2022-09-27T19:37:58.461Z,3.30
2022-09-27T19:40:45.598Z,3.60
2022-09-27T19:43:31.844Z,3.10
2022-09-27T19:46:18.734Z,3.60
2022-09-27T19:49:04.286Z,3.10
2022-09-27T19:51:51.958Z,3.20
2022-09-27T19:54:37.899Z,3.90
2022-09-27T19:57:23.837Z,3.40
2022-09-27T20:00:10.093Z,4.57
2022-09-27T20:02:55.765Z,3.93
2022-09-27T20:05:41.880Z,3.30
2022-09-27T20:08:28.888Z,4.23
2022-09-27T20:11:15.812Z,3.97
2022-09-27T20:14:01.681Z,3.60
2022-09-27T20:16:48.432Z,4.40
2022-09-27T20:19:34.071Z,3.63
2022-09-27T20:22:20.009Z,3.90
2022-09-27T20:25:07.591Z,3.53
2022-09-27T20:27:53.777Z,3.63
2022-09-27T20:30:39.595Z,3.60
2022-09-27T20:33:41.029Z,3.73
2022-09-27T20:36:29.311Z,3.20
2022-09-27T20:39:15.976Z,3.27
2022-09-27T20:42:02.074Z,2.90
2022-09-27T20:44:51.863Z,3.20
2022-09-27T20:47:42.299Z,3.10
2022-09-27T20:50:29.896Z,3.30
2022-09-27T20:53:16.001Z,3.30
2022-09-27T20:56:05.081Z,4.50
2022-09-27T20:58:54.978Z,3.27
2022-09-27T21:01:42.350Z,4.70
2022-09-27T21:04:30.196Z,3.50
2022-09-27T21:07:15.861Z,3.47
2022-09-27T21:10:01.604Z,3.37
2022-09-27T21:12:47.404Z,3.40
2022-09-27T21:15:33.098Z,3.90
2022-09-27T21:18:20.000Z,3.43
2022-09-27T21:21:10.043Z,4.37
2022-09-27T21:23:57.081Z,3.60
2022-09-27T21:26:42.628Z,3.80
2022-09-27T21:29:28.563Z,2.97
2022-09-27T21:32:14.219Z,3.73
2022-09-27T21:34:59.741Z,3.70
2022-09-27T21:37:47.463Z,3.30
2022-09-27T21:40:33.766Z,3.20
2022-09-27T21:43:20.049Z,3.53
2022-09-27T21:46:07.309Z,3.13
2022-09-27T21:48:55.602Z,3.60
2022-09-27T21:51:42.265Z,3.60
2022-09-27T21:54:28.135Z,3.60
2022-09-27T21:57:14.316Z,3.37
2022-09-27T22:00:00.199Z,3.60
2022-09-27T22:02:46.135Z,3.73
2022-09-27T22:05:32.171Z,3.50
2022-09-27T22:08:19.087Z,3.90
2022-09-27T22:11:06.353Z,3.50
2022-09-27T22:13:52.265Z,3.70
2022-09-27T22:16:38.464Z,3.40
2022-09-27T22:19:24.521Z,4.13
2022-09-27T22:22:10.624Z,3.93
2022-09-27T22:24:56.565Z,4.50
2022-09-27T22:27:42.990Z,4.20
2022-09-27T22:30:31.026Z,4.00
2022-09-27T22:33:17.152Z,4.40
2022-09-27T22:36:03.552Z,3.70
2022-09-27T22:38:49.852Z,4.03
2022-09-27T22:41:36.175Z,3.97
2022-09-27T22:44:24.117Z,3.40
2022-09-27T22:47:10.037Z,4.07
2022-09-27T22:49:58.643Z,4.23
2022-09-27T22:52:44.948Z,4.00
2022-09-27T22:55:30.884Z,4.00
2022-09-27T22:58:16.908Z,3.93
2022-09-27T23:01:29.322Z,3.60
2022-09-27T23:04:15.761Z,3.33
2022-09-27T23:07:01.534Z,3.60
2022-09-27T23:09:50.178Z,3.60
2022-09-27T23:12:36.169Z,4.80
2022-09-27T23:15:22.028Z,3.40
2022-09-27T23:18:08.397Z,3.20
2022-09-27T23:20:58.636Z,4.20
2022-09-27T23:23:46.803Z,3.37
2022-09-27T23:26:32.934Z,4.17
2022-09-27T23:29:20.695Z,3.30
2022-09-27T23:32:07.187Z,4.30
2022-09-27T23:34:52.969Z,3.43
2022-09-27T23:37:39.297Z,3.50
2022-09-27T23:40:26.570Z,3.87
2022-09-27T23:43:12.306Z,3.07
2022-09-27T23:45:58.348Z,3.03
2022-09-27T23:48:44.668Z,3.40
2022-09-27T23:51:30.795Z,3.73
2022-09-27T23:54:16.605Z,3.33
2022-09-27T23:57:04.158Z,3.23
2022-09-27T23:59:50.025Z,3.97
